Observations

83.3 °F / 28.5 °C
NNE at 8 MPH
82%
77.5°F / 25.3 °C
29.79" (1008 mb)
10 mile(s)
overcast
2019.10.23 1740 UTC

Observations

Surface


Raw METARs

2019/10/23 17:40
PKWA 231740Z AUTO 02007KT 10SM SCT022 BKN030 OVC090 29/25 A2979 RMK AO2 LTG DSNT SW T02850253

Translated METAR

Kwajalein, Bucholz AAF, Kwajalein KMR ATOL Airport, Marshall Islands (PKWA) 08-43N 167-44E 2M
Oct 23, 2019 - 01:40 PM EDT / 2019.10.23 1740 UTC
Wind: from the NNE (020 degrees) at 8 MPH (7 KT):0
Visibility: 10 mile(s):0
Sky conditions: overcast
Weather: Lightning observed
Temperature: 83.3 F (28.5 C)
Dew Point: 77.5 F (25.3 C)
Relative Humidity: 82%
Pressure (altimeter): 29.79 in. Hg (1008 hPa)
ob: PKWA 231740Z AUTO 02007KT 10SM SCT022 BKN030 OVC090 29/25 A2979 RMK AO2 LTG DSNT SW T02850253
cycle: 17



Upper Air


Latest Skew-T

Skew T Diagram

Latest Data File